sensor_id;sensor_type;location;lat;lon;timestamp;pressure;altitude;pressure_sealevel;temperature;humidity
65546;BME280;52177;55.968;37.498;2022-08-21T00:00:28;100590.47;;;16.91;46.08
65546;BME280;52177;55.968;37.498;2022-08-21T00:00:59;100591.28;;;16.92;45.91
65546;BME280;52177;55.968;37.498;2022-08-21T00:01:33;100591.47;;;16.90;46.17
65546;BME280;52177;55.968;37.498;2022-08-21T00:02:13;100594.38;;;16.88;46.70
65546;BME280;52177;55.968;37.498;2022-08-21T00:02:47;100589.00;;;16.88;46.60
65546;BME280;52177;55.968;37.498;2022-08-21T00:03:18;100591.88;;;16.87;46.53
65546;BME280;52177;55.968;37.498;2022-08-21T00:03:49;100589.19;;;16.87;46.46
65546;BME280;52177;55.968;37.498;2022-08-21T00:04:20;100595.59;;;16.86;46.68
65546;BME280;52177;55.968;37.498;2022-08-21T00:04:53;100594.16;;;16.83;46.79
65546;BME280;52177;55.968;37.498;2022-08-21T00:05:25;100591.81;;;16.80;46.40
65546;BME280;52177;55.968;37.498;2022-08-21T00:05:55;100598.25;;;16.79;46.52
65546;BME280;52177;55.968;37.498;2022-08-21T00:06:26;100585.75;;;16.78;46.40
65546;BME280;52177;55.968;37.498;2022-08-21T00:06:57;100592.03;;;16.79;46.43
65546;BME280;52177;55.968;37.498;2022-08-21T00:07:28;100592.19;;;16.77;46.53
65546;BME280;52177;55.968;37.498;2022-08-21T00:07:59;100593.19;;;16.76;46.44
65546;BME280;52177;55.968;37.498;2022-08-21T00:08:30;100594.25;;;16.75;46.54
65546;BME280;52177;55.968;37.498;2022-08-21T00:09:01;100590.91;;;16.73;46.46
65546;BME280;52177;55.968;37.498;2022-08-21T00:09:32;100591.13;;;16.72;46.10
65546;BME280;52177;55.968;37.498;2022-08-21T00:10:04;100588.44;;;16.72;46.25
65546;BME280;52177;55.968;37.498;2022-08-21T00:10:34;100592.94;;;16.71;46.26
65546;BME280;52177;55.968;37.498;2022-08-21T00:11:05;100589.44;;;16.71;46.39
65546;BME280;52177;55.968;37.498;2022-08-21T00:11:38;100585.72;;;16.72;46.24
65546;BME280;52177;55.968;37.498;2022-08-21T00:12:09;100600.66;;;16.74;46.30
65546;BME280;52177;55.968;37.498;2022-08-21T00:12:41;100586.75;;;16.71;46.60
65546;BME280;52177;55.968;37.498;2022-08-21T00:13:12;100592.13;;;16.71;46.50
65546;BME280;52177;55.968;37.498;2022-08-21T00:13:43;100585.09;;;16.70;46.15
65546;BME280;52177;55.968;37.498;2022-08-21T00:14:14;100591.31;;;16.70;46.55
65546;BME280;52177;55.968;37.498;2022-08-21T00:14:45;100593.16;;;16.70;46.49
65546;BME280;52177;55.968;37.498;2022-08-21T00:15:23;100588.78;;;16.68;46.34
65546;BME280;52177;55.968;37.498;2022-08-21T00:15:56;100587.31;;;16.66;46.69
65546;BME280;52177;55.968;37.498;2022-08-21T00:16:26;100585.69;;;16.65;46.46
65546;BME280;52177;55.968;37.498;2022-08-21T00:16:57;100592.53;;;16.67;46.48
65546;BME280;52177;55.968;37.498;2022-08-21T00:17:28;100590.03;;;16.66;46.79
65546;BME280;52177;55.968;37.498;2022-08-21T00:17:58;100592.72;;;16.66;47.01
65546;BME280;52177;55.968;37.498;2022-08-21T00:18:29;100588.38;;;16.65;46.78
65546;BME280;52177;55.968;37.498;2022-08-21T00:19:00;100590.19;;;16.64;46.65
65546;BME280;52177;55.968;37.498;2022-08-21T00:19:31;100589.38;;;16.64;46.60
65546;BME280;52177;55.968;37.498;2022-08-21T00:20:05;100588.56;;;16.63;46.88
65546;BME280;52177;55.968;37.498;2022-08-21T00:20:38;100586.91;;;16.62;47.02
65546;BME280;52177;55.968;37.498;2022-08-21T00:21:13;100591.63;;;16.60;46.88
65546;BME280;52177;55.968;37.498;2022-08-21T00:21:44;100589.97;;;16.59;46.77
65546;BME280;52177;55.968;37.498;2022-08-21T00:22:15;100590.78;;;16.60;46.60
65546;BME280;52177;55.968;37.498;2022-08-21T00:22:46;100586.44;;;16.59;46.85
65546;BME280;52177;55.968;37.498;2022-08-21T00:23:17;100591.81;;;16.59;47.00
65546;BME280;52177;55.968;37.498;2022-08-21T00:23:48;100589.97;;;16.59;46.91
65546;BME280;52177;55.968;37.498;2022-08-21T00:24:19;100584.78;;;16.58;46.99
65546;BME280;52177;55.968;37.498;2022-08-21T00:24:49;100588.50;;;16.57;47.08
65546;BME280;52177;55.968;37.498;2022-08-21T00:25:20;100588.50;;;16.57;46.84
65546;BME280;52177;55.968;37.498;2022-08-21T00:25:52;100587.66;;;16.56;46.77
65546;BME280;52177;55.968;37.498;2022-08-21T00:26:22;100591.19;;;16.57;46.68
65546;BME280;52177;55.968;37.498;2022-08-21T00:26:53;100593.03;;;16.56;46.96
65546;BME280;52177;55.968;37.498;2022-08-21T00:27:23;100586.84;;;16.56;47.21
65546;BME280;52177;55.968;37.498;2022-08-21T00:27:55;100581.81;;;16.53;47.10
65546;BME280;52177;55.968;37.498;2022-08-21T00:28:25;100588.44;;;16.50;46.99
65546;BME280;52177;55.968;37.498;2022-08-21T00:28:56;100583.03;;;16.50;47.06
65546;BME280;52177;55.968;37.498;2022-08-21T00:29:27;100584.25;;;16.48;47.07
65546;BME280;52177;55.968;37.498;2022-08-21T00:29:57;100585.94;;;16.49;47.34
65546;BME280;52177;55.968;37.498;2022-08-21T00:30:28;100585.31;;;16.46;47.61
65546;BME280;52177;55.968;37.498;2022-08-21T00:30:59;100593.38;;;16.46;47.62
65546;BME280;52177;55.968;37.498;2022-08-21T00:31:30;100584.47;;;16.46;47.45
65546;BME280;52177;55.968;37.498;2022-08-21T00:32:00;100578.44;;;16.44;47.14
65546;BME280;52177;55.968;37.498;2022-08-21T00:32:31;100585.50;;;16.45;47.07
65546;BME280;52177;55.968;37.498;2022-08-21T00:33:03;100573.06;;;16.44;47.26
65546;BME280;52177;55.968;37.498;2022-08-21T00:33:34;100581.16;;;16.44;47.29
65546;BME280;52177;55.968;37.498;2022-08-21T00:34:05;100581.97;;;16.44;47.50
65546;BME280;52177;55.968;37.498;2022-08-21T00:34:36;100585.50;;;16.45;47.38
65546;BME280;52177;55.968;37.498;2022-08-21T00:35:10;100581.97;;;16.44;47.38
65546;BME280;52177;55.968;37.498;2022-08-21T00:35:42;100589.22;;;16.44;47.45
65546;BME280;52177;55.968;37.498;2022-08-21T00:36:13;100583.84;;;16.44;47.16
65546;BME280;52177;55.968;37.498;2022-08-21T00:36:43;100587.53;;;16.43;47.49
65546;BME280;52177;55.968;37.498;2022-08-21T00:37:14;100585.66;;;16.43;47.53
65546;BME280;52177;55.968;37.498;2022-08-21T00:37:44;100581.16;;;16.44;47.54
65546;BME280;52177;55.968;37.498;2022-08-21T00:38:15;100584.03;;;16.42;47.55
65546;BME280;52177;55.968;37.498;2022-08-21T00:38:45;100584.19;;;16.41;47.50
65546;BME280;52177;55.968;37.498;2022-08-21T00:39:16;100583.38;;;16.40;47.34
65546;BME280;52177;55.968;37.498;2022-08-21T00:39:46;100581.72;;;16.39;47.57
65546;BME280;52177;55.968;37.498;2022-08-21T00:40:24;100580.91;;;16.39;47.59
65546;BME280;52177;55.968;37.498;2022-08-21T00:40:59;100577.75;;;16.35;47.70
65546;BME280;52177;55.968;37.498;2022-08-21T00:41:30;100579.78;;;16.33;47.54
65546;BME280;52177;55.968;37.498;2022-08-21T00:42:01;100585.34;;;16.32;47.63
65546;BME280;52177;55.968;37.498;2022-08-21T00:42:32;100584.53;;;16.31;47.82
65546;BME280;52177;55.968;37.498;2022-08-21T00:43:04;100579.16;;;16.31;48.04
65546;BME280;52177;55.968;37.498;2022-08-21T00:43:36;100578.72;;;16.28;47.90
65546;BME280;52177;55.968;37.498;2022-08-21T00:44:09;100579.53;;;16.28;47.58
65546;BME280;52177;55.968;37.498;2022-08-21T00:44:44;100577.69;;;16.29;47.75
65546;BME280;52177;55.968;37.498;2022-08-21T00:45:15;100578.72;;;16.28;47.80
65546;BME280;52177;55.968;37.498;2022-08-21T00:45:47;100581.41;;;16.28;47.90
65546;BME280;52177;55.968;37.498;2022-08-21T00:46:18;100574.56;;;16.25;47.58
65546;BME280;52177;55.968;37.498;2022-08-21T00:46:48;100578.06;;;16.25;47.79
65546;BME280;52177;55.968;37.498;2022-08-21T00:47:19;100577.25;;;16.25;47.73
65546;BME280;52177;55.968;37.498;2022-08-21T00:47:51;100579.94;;;16.25;47.69
65546;BME280;52177;55.968;37.498;2022-08-21T00:48:23;100576.38;;;16.24;47.96
65546;BME280;52177;55.968;37.498;2022-08-21T00:48:54;100577.25;;;16.25;48.30
65546;BME280;52177;55.968;37.498;2022-08-21T00:49:25;100584.47;;;16.24;47.93
65546;BME280;52177;55.968;37.498;2022-08-21T00:49:55;100579.94;;;16.25;47.84
65546;BME280;52177;55.968;37.498;2022-08-21T00:50:29;100571.88;;;16.25;47.91
65546;BME280;52177;55.968;37.498;2022-08-21T00:51:10;100580.94;;;16.24;47.83
65546;BME280;52177;55.968;37.498;2022-08-21T00:51:50;100577.81;;;16.20;47.78
65546;BME280;52177;55.968;37.498;2022-08-21T00:52:22;100580.69;;;16.19;48.39
65546;BME280;52177;55.968;37.498;2022-08-21T00:52:55;100573.66;;;16.18;47.95
65546;BME280;52177;55.968;37.498;2022-08-21T00:53:27;100571.78;;;16.18;47.71
65546;BME280;52177;55.968;37.498;2022-08-21T00:54:01;100570.13;;;16.17;47.65
65546;BME280;52177;55.968;37.498;2022-08-21T00:54:33;100572.81;;;16.17;47.60
65546;BME280;52177;55.968;37.498;2022-08-21T00:55:05;100574.66;;;16.17;47.54
65546;BME280;52177;55.968;37.498;2022-08-21T00:55:37;100570.13;;;16.17;47.37
65546;BME280;52177;55.968;37.498;2022-08-21T00:56:10;100566.41;;;16.18;47.65
65546;BME280;52177;55.968;37.498;2022-08-21T00:56:41;100565.38;;;16.19;47.55
65546;BME280;52177;55.968;37.498;2022-08-21T00:57:39;100571.59;;;16.20;47.50
65546;BME280;52177;55.968;37.498;2022-08-21T00:58:12;100568.06;;;16.19;47.55
65546;BME280;52177;55.968;37.498;2022-08-21T00:58:44;100569.94;;;16.19;47.57
65546;BME280;52177;55.968;37.498;2022-08-21T00:59:16;100565.38;;;16.19;47.70
65546;BME280;52177;55.968;37.498;2022-08-21T00:59:50;100572.63;;;16.19;47.97
65546;BME280;52177;55.968;37.498;2022-08-21T01:00:26;100570.13;;;16.17;47.99
65546;BME280;52177;55.968;37.498;2022-08-21T01:00:59;100573.00;;;16.16;48.14
65546;BME280;52177;55.968;37.498;2022-08-21T01:01:31;100578.41;;;16.16;47.84
65546;BME280;52177;55.968;37.498;2022-08-21T01:02:04;100576.72;;;16.15;47.84
65546;BME280;52177;55.968;37.498;2022-08-21T01:02:35;100574.03;;;16.15;48.11
65546;BME280;52177;55.968;37.498;2022-08-21T01:03:09;100568.84;;;16.13;48.28
65546;BME280;52177;55.968;37.498;2022-08-21T01:03:41;100569.03;;;16.12;48.36
65546;BME280;52177;55.968;37.498;2022-08-21T01:04:12;100572.72;;;16.11;48.31
65546;BME280;52177;55.968;37.498;2022-08-21T01:04:42;100572.94;;;16.09;48.15
65546;BME280;52177;55.968;37.498;2022-08-21T01:05:14;100578.31;;;16.09;48.20
65546;BME280;52177;55.968;37.498;2022-08-21T01:05:45;100573.13;;;16.08;48.12
65546;BME280;52177;55.968;37.498;2022-08-21T01:06:16;100579.53;;;16.07;48.25
65546;BME280;52177;55.968;37.498;2022-08-21T01:06:47;100574.16;;;16.07;48.18
65546;BME280;52177;55.968;37.498;2022-08-21T01:07:17;100573.13;;;16.08;48.17
65546;BME280;52177;55.968;37.498;2022-08-21T01:07:48;100574.97;;;16.07;48.21
65546;BME280;52177;55.968;37.498;2022-08-21T01:08:20;100569.59;;;16.07;48.09
65546;BME280;52177;55.968;37.498;2022-08-21T01:08:51;100578.50;;;16.08;47.98
65546;BME280;52177;55.968;37.498;2022-08-21T01:09:21;100579.72;;;16.05;48.17
65546;BME280;52177;55.968;37.498;2022-08-21T01:09:52;100575.38;;;16.04;48.01
65546;BME280;52177;55.968;37.498;2022-08-21T01:10:23;100573.50;;;16.04;48.26
65546;BME280;52177;55.968;37.498;2022-08-21T01:10:54;100584.44;;;16.03;47.97
65546;BME280;52177;55.968;37.498;2022-08-21T01:11:25;100576.38;;;16.03;48.42
65546;BME280;52177;55.968;37.498;2022-08-21T01:11:55;100578.91;;;16.04;48.54
65546;BME280;52177;55.968;37.498;2022-08-21T01:12:26;100577.22;;;16.03;48.86
65546;BME280;52177;55.968;37.498;2022-08-21T01:12:56;100584.66;;;16.01;48.72
65546;BME280;52177;55.968;37.498;2022-08-21T01:13:29;100582.16;;;16.00;48.87
65546;BME280;52177;55.968;37.498;2022-08-21T01:14:02;100581.13;;;16.01;48.49
65546;BME280;52177;55.968;37.498;2022-08-21T01:14:33;100574.09;;;16.00;48.38
65546;BME280;52177;55.968;37.498;2022-08-21T01:15:05;100589.41;;;15.99;48.80
65546;BME280;52177;55.968;37.498;2022-08-21T01:15:38;100585.84;;;15.99;48.64
65546;BME280;52177;55.968;37.498;2022-08-21T01:16:10;100580.47;;;15.99;48.64
65546;BME280;52177;55.968;37.498;2022-08-21T01:16:44;100576.94;;;15.98;48.77
65546;BME280;52177;55.968;37.498;2022-08-21T01:17:17;100575.31;;;15.97;48.66
65546;BME280;52177;55.968;37.498;2022-08-21T01:17:49;100576.31;;;15.96;48.67
65546;BME280;52177;55.968;37.498;2022-08-21T01:18:21;100580.03;;;15.95;48.84
65546;BME280;52177;55.968;37.498;2022-08-21T01:18:52;100579.22;;;15.95;48.92
65546;BME280;52177;55.968;37.498;2022-08-21T01:19:23;100581.03;;;15.94;48.67
65546;BME280;52177;55.968;37.498;2022-08-21T01:19:58;100581.91;;;15.95;48.71
65546;BME280;52177;55.968;37.498;2022-08-21T01:20:29;100584.94;;;15.92;48.69
65546;BME280;52177;55.968;37.498;2022-08-21T01:21:11;100582.25;;;15.92;48.32
65546;BME280;52177;55.968;37.498;2022-08-21T01:21:42;100579.78;;;15.90;48.62
65546;BME280;52177;55.968;37.498;2022-08-21T01:22:13;100583.28;;;15.91;48.77
65546;BME280;52177;55.968;37.498;2022-08-21T01:22:44;100577.91;;;15.91;48.90
65546;BME280;52177;55.968;37.498;2022-08-21T01:23:15;100585.97;;;15.91;48.71
65546;BME280;52177;55.968;37.498;2022-08-21T01:23:49;100585.81;;;15.92;48.76
65546;BME280;52177;55.968;37.498;2022-08-21T01:24:20;100581.25;;;15.93;48.63
65546;BME280;52177;55.968;37.498;2022-08-21T01:24:51;100569.84;;;15.91;48.63
65546;BME280;52177;55.968;37.498;2022-08-21T01:25:22;100579.56;;;15.92;48.68
65546;BME280;52177;55.968;37.498;2022-08-21T01:25:53;100584.94;;;15.92;48.55
65546;BME280;52177;55.968;37.498;2022-08-21T01:26:28;100582.47;;;15.90;48.47
65546;BME280;52177;55.968;37.498;2022-08-21T01:26:59;100579.13;;;15.88;48.57
65546;BME280;52177;55.968;37.498;2022-08-21T01:27:30;100582.81;;;15.87;48.41
65546;BME280;52177;55.968;37.498;2022-08-21T01:28:06;100586.38;;;15.88;48.45
65546;BME280;52177;55.968;37.498;2022-08-21T01:28:51;100579.50;;;15.85;48.32
65546;BME280;52177;55.968;37.498;2022-08-21T01:30:44;100578.47;;;15.86;48.51
65546;BME280;52177;55.968;37.498;2022-08-21T01:31:17;100575.78;;;15.86;48.64
65546;BME280;52177;55.968;37.498;2022-08-21T01:31:50;100575.97;;;15.85;48.79
65546;BME280;52177;55.968;37.498;2022-08-21T01:32:20;100581.34;;;15.85;48.93
65546;BME280;52177;55.968;37.498;2022-08-21T01:32:52;100579.50;;;15.85;48.86
65546;BME280;52177;55.968;37.498;2022-08-21T01:33:25;100573.28;;;15.85;48.79
65546;BME280;52177;55.968;37.498;2022-08-21T01:33:56;100579.50;;;15.85;48.65
65546;BME280;52177;55.968;37.498;2022-08-21T01:34:26;100577.00;;;15.83;48.59
65546;BME280;52177;55.968;37.498;2022-08-21T01:34:56;100576.34;;;15.81;48.36
65546;BME280;52177;55.968;37.498;2022-08-21T01:35:27;100580.53;;;15.84;48.71
65546;BME280;52177;55.968;37.498;2022-08-21T01:35:57;100583.84;;;15.86;49.04
65546;BME280;52177;55.968;37.498;2022-08-21T01:36:28;100582.19;;;15.85;48.90
65546;BME280;52177;55.968;37.498;2022-08-21T01:36:59;100582.19;;;15.85;48.87
65546;BME280;52177;55.968;37.498;2022-08-21T01:37:30;100581.16;;;15.86;48.74
65546;BME280;52177;55.968;37.498;2022-08-21T01:38:01;100578.47;;;15.86;48.55
65546;BME280;52177;55.968;37.498;2022-08-21T01:38:32;100580.13;;;15.87;48.67
65546;BME280;52177;55.968;37.498;2022-08-21T01:39:03;100580.13;;;15.87;48.83
65546;BME280;52177;55.968;37.498;2022-08-21T01:39:35;100576.63;;;15.87;48.56
65546;BME280;52177;55.968;37.498;2022-08-21T01:40:07;100575.78;;;15.86;48.56
65546;BME280;52177;55.968;37.498;2022-08-21T01:40:38;100576.81;;;15.85;48.49
65546;BME280;52177;55.968;37.498;2022-08-21T01:41:09;100577.66;;;15.86;48.67
65546;BME280;52177;55.968;37.498;2022-08-21T01:41:40;100581.16;;;15.86;48.80
65546;BME280;52177;55.968;37.498;2022-08-21T01:42:12;100574.97;;;15.86;48.41
65546;BME280;52177;55.968;37.498;2022-08-21T01:42:43;100579.50;;;15.85;48.56
65546;BME280;52177;55.968;37.498;2022-08-21T01:43:14;100579.50;;;15.85;48.50
65546;BME280;52177;55.968;37.498;2022-08-21T01:43:45;100574.13;;;15.85;48.57
65546;BME280;52177;55.968;37.498;2022-08-21T01:44:15;100572.44;;;15.84;48.68
65546;BME280;52177;55.968;37.498;2022-08-21T01:44:46;100574.31;;;15.83;48.47
65546;BME280;52177;55.968;37.498;2022-08-21T01:45:17;100566.25;;;15.83;48.52
65546;BME280;52177;55.968;37.498;2022-08-21T01:45:47;100572.44;;;15.84;48.36
65546;BME280;52177;55.968;37.498;2022-08-21T01:46:18;100569.75;;;15.84;48.42
65546;BME280;52177;55.968;37.498;2022-08-21T01:46:48;100568.75;;;15.85;48.36
65546;BME280;52177;55.968;37.498;2022-08-21T01:47:19;100567.06;;;15.84;48.42
65546;BME280;52177;55.968;37.498;2022-08-21T01:47:50;100581.56;;;15.83;48.47
65546;BME280;52177;55.968;37.498;2022-08-21T01:48:21;100573.66;;;15.81;48.46
65546;BME280;52177;55.968;37.498;2022-08-21T01:48:51;100572.00;;;15.80;48.37
65546;BME280;52177;55.968;37.498;2022-08-21T01:49:22;100580.09;;;15.80;48.47
65546;BME280;52177;55.968;37.498;2022-08-21T01:49:52;100571.16;;;15.80;48.37
65546;BME280;52177;55.968;37.498;2022-08-21T01:50:23;100573.66;;;15.81;48.40
65546;BME280;52177;55.968;37.498;2022-08-21T01:50:54;100577.41;;;15.80;48.71
65546;BME280;52177;55.968;37.498;2022-08-21T01:51:24;100574.06;;;15.78;48.41
65546;BME280;52177;55.968;37.498;2022-08-21T01:51:56;100567.81;;;15.78;48.69
65546;BME280;52177;55.968;37.498;2022-08-21T01:52:26;100573.19;;;15.78;48.52
65546;BME280;52177;55.968;37.498;2022-08-21T01:52:58;100570.50;;;15.78;48.43
65546;BME280;52177;55.968;37.498;2022-08-21T01:53:28;100581.09;;;15.79;49.09
65546;BME280;52177;55.968;37.498;2022-08-21T01:53:59;100577.56;;;15.79;49.13
65546;BME280;52177;55.968;37.498;2022-08-21T01:54:30;100569.69;;;15.77;48.94
65546;BME280;52177;55.968;37.498;2022-08-21T01:55:00;100581.09;;;15.79;48.58
65546;BME280;52177;55.968;37.498;2022-08-21T01:55:31;100573.41;;;15.76;48.92
65546;BME280;52177;55.968;37.498;2022-08-21T01:56:04;100574.25;;;15.77;48.84
65546;BME280;52177;55.968;37.498;2022-08-21T01:56:37;100574.25;;;15.77;48.74
65546;BME280;52177;55.968;37.498;2022-08-21T01:57:09;100576.91;;;15.77;48.59
65546;BME280;52177;55.968;37.498;2022-08-21T01:57:40;100577.75;;;15.77;48.75
65546;BME280;52177;55.968;37.498;2022-08-21T01:58:11;100579.44;;;15.78;48.88
65546;BME280;52177;55.968;37.498;2022-08-21T01:58:43;100575.06;;;15.77;49.13
65546;BME280;52177;55.968;37.498;2022-08-21T01:59:14;100574.25;;;15.77;49.12
65546;BME280;52177;55.968;37.498;2022-08-21T01:59:44;100578.78;;;15.76;48.85
65546;BME280;52177;55.968;37.498;2022-08-21T02:00:17;100582.47;;;15.75;49.02
65546;BME280;52177;55.968;37.498;2022-08-21T02:00:47;100577.31;;;15.74;48.90
65546;BME280;52177;55.968;37.498;2022-08-21T02:01:19;100581.84;;;15.73;48.89
65546;BME280;52177;55.968;37.498;2022-08-21T02:01:50;100578.31;;;15.73;49.22
65546;BME280;52177;55.968;37.498;2022-08-21T02:02:21;100575.63;;;15.73;49.41
65546;BME280;52177;55.968;37.498;2022-08-21T02:02:52;100580.00;;;15.74;49.10
65546;BME280;52177;55.968;37.498;2022-08-21T02:03:22;100574.63;;;15.74;49.22
65546;BME280;52177;55.968;37.498;2022-08-21T02:03:52;100581.00;;;15.73;49.31
65546;BME280;52177;55.968;37.498;2022-08-21T02:04:24;100577.66;;;15.71;49.47
65546;BME280;52177;55.968;37.498;2022-08-21T02:04:54;100572.47;;;15.69;49.36
65546;BME280;52177;55.968;37.498;2022-08-21T02:05:25;100571.81;;;15.67;49.26
65546;BME280;52177;55.968;37.498;2022-08-21T02:05:55;100575.50;;;15.66;49.46
65546;BME280;52177;55.968;37.498;2022-08-21T02:06:26;100580.88;;;15.66;49.30
65546;BME280;52177;55.968;37.498;2022-08-21T02:06:57;100577.56;;;15.64;49.19
65546;BME280;52177;55.968;37.498;2022-08-21T02:07:27;100579.41;;;15.63;49.43
65546;BME280;52177;55.968;37.498;2022-08-21T02:07:58;100575.91;;;15.63;49.48
65546;BME280;52177;55.968;37.498;2022-08-21T02:08:29;100577.75;;;15.62;49.44
65546;BME280;52177;55.968;37.498;2022-08-21T02:08:59;100574.25;;;15.62;49.63
65546;BME280;52177;55.968;37.498;2022-08-21T02:09:30;100576.94;;;15.62;49.80
65546;BME280;52177;55.968;37.498;2022-08-21T02:10:00;100575.25;;;15.61;50.13
65546;BME280;52177;55.968;37.498;2022-08-21T02:10:31;100572.56;;;15.61;50.09
65546;BME280;52177;55.968;37.498;2022-08-21T02:11:02;100582.66;;;15.59;50.17
65546;BME280;52177;55.968;37.498;2022-08-21T02:11:33;100579.97;;;15.59;50.04
65546;BME280;52177;55.968;37.498;2022-08-21T02:12:03;100583.50;;;15.59;49.83
65546;BME280;52177;55.968;37.498;2022-08-21T02:12:34;100585.56;;;15.57;50.00
65546;BME280;52177;55.968;37.498;2022-08-21T02:13:05;100575.81;;;15.56;50.16
65546;BME280;52177;55.968;37.498;2022-08-21T02:13:37;100582.22;;;15.55;50.07
65546;BME280;52177;55.968;37.498;2022-08-21T02:14:08;100570.00;;;15.53;49.88
65546;BME280;52177;55.968;37.498;2022-08-21T02:14:39;100578.06;;;15.53;49.82
65546;BME280;52177;55.968;37.498;2022-08-21T02:15:09;100578.22;;;15.51;49.95
65546;BME280;52177;55.968;37.498;2022-08-21T02:15:40;100584.25;;;15.53;49.72
65546;BME280;52177;55.968;37.498;2022-08-21T02:16:11;100579.91;;;15.52;49.59
65546;BME280;52177;55.968;37.498;2022-08-21T02:16:43;100579.91;;;15.52;49.69
65546;BME280;52177;55.968;37.498;2022-08-21T02:17:14;100573.69;;;15.52;50.28
65546;BME280;52177;55.968;37.498;2022-08-21T02:17:50;100578.88;;;15.53;50.21
65546;BME280;52177;55.968;37.498;2022-08-21T02:18:21;100580.75;;;15.53;50.16
65546;BME280;52177;55.968;37.498;2022-08-21T02:18:52;100573.50;;;15.53;49.90
65546;BME280;52177;55.968;37.498;2022-08-21T02:19:22;100577.84;;;15.54;49.98
65546;BME280;52177;55.968;37.498;2022-08-21T02:19:52;100577.84;;;15.54;49.71
65546;BME280;52177;55.968;37.498;2022-08-21T02:20:32;100577.66;;;15.56;49.52
65546;BME280;52177;55.968;37.498;2022-08-21T02:21:04;100576.84;;;15.55;49.71
65546;BME280;52177;55.968;37.498;2022-08-21T02:21:34;100579.16;;;15.58;49.47
65546;BME280;52177;55.968;37.498;2022-08-21T02:22:05;100580.19;;;15.57;49.68
65546;BME280;52177;55.968;37.498;2022-08-21T02:22:35;100577.66;;;15.56;49.47
65546;BME280;52177;55.968;37.498;2022-08-21T02:23:08;100583.22;;;15.54;49.67
65546;BME280;52177;55.968;37.498;2022-08-21T02:23:39;100577.03;;;15.54;49.61
65546;BME280;52177;55.968;37.498;2022-08-21T02:24:10;100579.06;;;15.52;49.62
65546;BME280;52177;55.968;37.498;2022-08-21T02:24:40;100579.06;;;15.52;49.74
65546;BME280;52177;55.968;37.498;2022-08-21T02:25:11;100577.22;;;15.52;49.82
65546;BME280;52177;55.968;37.498;2022-08-21T02:25:42;100583.44;;;15.53;50.06
65546;BME280;52177;55.968;37.498;2022-08-21T02:26:13;100583.44;;;15.53;49.77
65546;BME280;52177;55.968;37.498;2022-08-21T02:26:43;100576.38;;;15.52;49.76
65546;BME280;52177;55.968;37.498;2022-08-21T02:27:14;100580.75;;;15.53;50.00
65546;BME280;52177;55.968;37.498;2022-08-21T02:27:45;100584.25;;;15.53;49.89
65546;BME280;52177;55.968;37.498;2022-08-21T02:28:17;100583.59;;;15.51;49.89
65546;BME280;52177;55.968;37.498;2022-08-21T02:28:48;100591.66;;;15.51;50.11
65546;BME280;52177;55.968;37.498;2022-08-21T02:29:18;100584.81;;;15.49;49.98
65546;BME280;52177;55.968;37.498;2022-08-21T02:29:49;100587.31;;;15.50;49.76
65546;BME280;52177;55.968;37.498;2022-08-21T02:30:41;100589.38;;;15.48;50.17
65546;BME280;52177;55.968;37.498;2022-08-21T02:31:12;100592.06;;;15.48;49.75
65546;BME280;52177;55.968;37.498;2022-08-21T02:31:43;100590.19;;;15.49;50.06
65546;BME280;52177;55.968;37.498;2022-08-21T02:32:13;100592.88;;;15.49;50.12
65546;BME280;52177;55.968;37.498;2022-08-21T02:32:44;100586.47;;;15.50;49.74
65546;BME280;52177;55.968;37.498;2022-08-21T02:33:15;100587.13;;;15.52;49.72
65546;BME280;52177;55.968;37.498;2022-08-21T02:33:46;100588.97;;;15.51;49.86
65546;BME280;52177;55.968;37.498;2022-08-21T02:34:16;100596.03;;;15.52;50.09
65546;BME280;52177;55.968;37.498;2022-08-21T02:34:47;100589.63;;;15.53;49.93
65546;BME280;52177;55.968;37.498;2022-08-21T02:35:18;100585.09;;;15.54;50.06
65546;BME280;52177;55.968;37.498;2022-08-21T02:35:49;100581.38;;;15.55;49.81
65546;BME280;52177;55.968;37.498;2022-08-21T02:36:20;100591.09;;;15.56;49.63
65546;BME280;52177;55.968;37.498;2022-08-21T02:36:50;100585.91;;;15.54;49.79
65546;BME280;52177;55.968;37.498;2022-08-21T02:37:21;100592.97;;;15.55;49.54
65546;BME280;52177;55.968;37.498;2022-08-21T02:37:54;100585.91;;;15.54;49.79
65546;BME280;52177;55.968;37.498;2022-08-21T02:38:27;100584.91;;;15.55;50.21
65546;BME280;52177;55.968;37.498;2022-08-21T02:38:58;100585.91;;;15.54;50.27
65546;BME280;52177;55.968;37.498;2022-08-21T02:39:28;100594.81;;;15.55;50.18
65546;BME280;52177;55.968;37.498;2022-08-21T02:40:00;100588.59;;;15.54;50.42
65546;BME280;52177;55.968;37.498;2022-08-21T02:40:33;100588.41;;;15.56;50.43
65546;BME280;52177;55.968;37.498;2022-08-21T02:41:07;100589.25;;;15.56;50.60
65546;BME280;52177;55.968;37.498;2022-08-21T02:41:38;100596.31;;;15.57;50.46
65546;BME280;52177;55.968;37.498;2022-08-21T02:42:08;100601.47;;;15.59;50.19
65546;BME280;52177;55.968;37.498;2022-08-21T02:42:38;100594.44;;;15.58;50.17
65546;BME280;52177;55.968;37.498;2022-08-21T02:43:10;100586.38;;;15.58;50.02
65546;BME280;52177;55.968;37.498;2022-08-21T02:43:41;100588.41;;;15.56;49.88
65546;BME280;52177;55.968;37.498;2022-08-21T02:44:12;100590.28;;;15.55;50.08
65546;BME280;52177;55.968;37.498;2022-08-21T02:44:42;100600.00;;;15.56;49.98
65546;BME280;52177;55.968;37.498;2022-08-21T02:45:13;100597.13;;;15.58;49.86